Time;durP1;ratioP1;P1;durP2;ratioP2;P2;SDS_P1;SDS_P2;PMS_P1;PMS_P2;Temp;Humidity;BMP_temperature;BMP_pressure;BME280_temperature;BME280_humidity;BME280_pressure;Samples;Min_cycle;Max_cycle;Signal;HPM_P1;HPM_P2
2023/04/24 00:00:12;;;;;;;1.30;0.83;;;12.10;99.90;;;;;;6217345;23;20427;-71
2023/04/24 00:02:38;;;;;;;1.30;1.20;;;12.00;99.90;;;;;;6191579;23;20282;-70
2023/04/24 00:05:05;;;;;;;1.63;0.87;;;12.00;99.90;;;;;;6217726;23;20474;-72
2023/04/24 00:07:31;;;;;;;1.13;1.03;;;12.00;99.90;;;;;;6217689;23;20376;-71
2023/04/24 00:09:57;;;;;;;1.77;1.30;;;12.00;99.90;;;;;;6217231;23;20460;-70
2023/04/24 00:12:23;;;;;;;1.77;1.00;;;12.00;99.90;;;;;;6217549;23;20192;-70
2023/04/24 00:14:49;;;;;;;1.30;1.00;;;11.90;99.90;;;;;;6221731;23;20359;-72
2023/04/24 00:17:14;;;;;;;1.67;1.13;;;11.90;99.90;;;;;;6218243;23;20135;-70
2023/04/24 00:19:40;;;;;;;1.70;1.50;;;11.90;99.90;;;;;;6217659;23;20420;-70
2023/04/24 00:22:05;;;;;;;2.10;0.90;;;11.90;99.90;;;;;;6217850;23;20229;-71
2023/04/24 00:24:31;;;;;;;2.43;1.30;;;11.90;99.90;;;;;;6217616;23;20154;-70
2023/04/24 00:26:57;;;;;;;1.93;1.30;;;11.90;99.90;;;;;;6219950;23;20130;-69
2023/04/24 00:29:22;;;;;;;1.43;0.90;;;11.90;99.90;;;;;;6217524;23;20168;-70
2023/04/24 00:31:48;;;;;;;1.23;1.00;;;11.80;99.90;;;;;;6195762;23;20148;-72
2023/04/24 00:34:14;;;;;;;1.30;1.00;;;11.80;99.90;;;;;;6220225;23;20192;-71
2023/04/24 00:36:40;;;;;;;1.07;0.73;;;11.80;99.90;;;;;;6191242;23;20152;-70
2023/04/24 00:39:08;;;;;;;0.97;0.70;;;11.80;99.90;;;;;;6217520;23;20202;-70
2023/04/24 00:41:34;;;;;;;1.53;1.33;;;11.80;99.90;;;;;;6217581;23;20353;-69
2023/04/24 00:44:00;;;;;;;1.47;1.10;;;11.90;99.90;;;;;;6217799;23;20365;-70
2023/04/24 00:46:26;;;;;;;0.97;0.80;;;11.90;99.90;;;;;;6191164;23;20385;-70
2023/04/24 00:48:51;;;;;;;1.10;0.80;;;11.90;99.90;;;;;;6191115;23;20178;-71
2023/04/24 00:51:17;;;;;;;1.20;0.90;;;11.80;99.90;;;;;;6219290;23;20373;-71
2023/04/24 00:53:43;;;;;;;1.40;1.00;;;11.90;99.90;;;;;;6219639;23;20270;-71
2023/04/24 00:56:09;;;;;;;1.50;1.20;;;11.90;99.90;;;;;;6219807;23;20384;-69
2023/04/24 00:58:35;;;;;;;2.90;1.37;;;11.90;99.90;;;;;;6219207;23;20134;-69
2023/04/24 01:01:02;;;;;;;1.43;0.90;;;11.90;99.90;;;;;;6193298;23;20401;-72
2023/04/24 01:03:31;;;;;;;2.63;1.40;;;11.80;99.90;;;;;;6192977;23;20158;-70
2023/04/24 01:05:57;;;;;;;1.70;1.30;;;11.90;99.90;;;;;;6193014;23;20368;-69
2023/04/24 01:08:24;;;;;;;1.47;1.07;;;11.90;99.90;;;;;;6219499;23;20608;-71
2023/04/24 01:10:52;;;;;;;2.17;1.17;;;11.90;99.90;;;;;;6192569;23;20448;-71
2023/04/24 01:13:19;;;;;;;1.43;1.00;;;11.80;99.90;;;;;;6193022;23;20416;-70
2023/04/24 01:15:45;;;;;;;2.30;1.07;;;11.80;99.90;;;;;;6219483;23;20610;-72
2023/04/24 01:18:11;;;;;;;1.33;1.00;;;11.80;99.90;;;;;;6220260;23;20383;-71
2023/04/24 01:20:40;;;;;;;1.60;0.90;;;11.80;99.90;;;;;;6221006;23;20387;-70
2023/04/24 01:23:09;;;;;;;1.57;1.00;;;11.70;99.90;;;;;;6220090;23;20443;-68
2023/04/24 01:25:35;;;;;;;1.67;1.10;;;11.70;99.90;;;;;;6219720;23;20435;-72
2023/04/24 01:28:01;;;;;;;2.27;1.27;;;11.70;99.90;;;;;;6193517;23;20381;-70
2023/04/24 01:30:27;;;;;;;3.43;1.23;;;11.60;99.90;;;;;;6196524;23;20225;-70
2023/04/24 01:32:53;;;;;;;2.00;1.37;;;11.60;99.90;;;;;;6194587;23;20432;-69
2023/04/24 01:35:19;;;;;;;3.37;2.10;;;11.60;98.40;;;;;;6219390;23;20666;-70
2023/04/24 01:37:45;;;;;;;3.50;2.57;;;11.70;96.40;;;;;;6192824;23;20415;-72
2023/04/24 01:40:11;;;;;;;3.67;2.90;;;11.60;92.70;;;;;;6218837;23;20520;-70
2023/04/24 01:42:37;;;;;;;4.63;3.73;;;11.50;92.60;;;;;;6219710;23;20134;-70
2023/04/24 01:45:05;;;;;;;5.07;3.70;;;11.40;92.00;;;;;;6219315;23;20380;-69
2023/04/24 01:47:31;;;;;;;4.00;2.57;;;11.30;92.10;;;;;;6193311;23;20431;-73
2023/04/24 01:49:57;;;;;;;5.77;3.53;;;11.20;92.50;;;;;;6218530;23;20425;-75
2023/04/24 01:52:23;;;;;;;3.47;3.00;;;11.20;91.60;;;;;;6219003;23;20431;-71
2023/04/24 01:54:49;;;;;;;4.47;3.07;;;11.10;92.30;;;;;;6219105;23;20640;-71
2023/04/24 01:57:16;;;;;;;4.90;3.00;;;11.00;92.80;;;;;;6222426;23;20346;-71
2023/04/24 01:59:42;;;;;;;3.83;3.17;;;10.90;93.60;;;;;;6196908;23;20662;-70
2023/04/24 02:02:08;;;;;;;3.50;3.20;;;10.80;94.10;;;;;;6192781;23;20209;-70
2023/04/24 02:04:34;;;;;;;4.87;3.80;;;10.80;94.50;;;;;;6192602;23;20451;-70
2023/04/24 02:07:00;;;;;;;5.53;3.73;;;10.70;95.10;;;;;;6218982;23;20358;-71
2023/04/24 02:09:25;;;;;;;5.60;4.00;;;10.60;96.00;;;;;;6218457;23;20598;-71
2023/04/24 02:11:51;;;;;;;4.97;4.13;;;10.40;97.20;;;;;;6192340;23;20511;-70
2023/04/24 02:14:17;;;;;;;6.00;3.90;;;10.30;98.40;;;;;;6218678;23;20455;-71
2023/04/24 02:16:43;;;;;;;5.23;4.43;;;10.20;99.80;;;;;;6218457;23;20352;-69
2023/04/24 02:19:09;;;;;;;5.47;3.67;;;10.00;99.90;;;;;;6222725;23;20170;-70
2023/04/24 02:21:35;;;;;;;3.80;3.30;;;10.00;99.90;;;;;;6219229;23;20363;-69
2023/04/24 02:24:01;;;;;;;4.40;3.67;;;9.80;99.90;;;;;;6219083;23;20825;-70
2023/04/24 02:26:26;;;;;;;6.83;5.43;;;9.70;99.90;;;;;;6218696;23;20145;-70
2023/04/24 02:28:52;;;;;;;6.97;4.20;;;9.60;99.90;;;;;;6218317;23;20178;-69
2023/04/24 02:31:20;;;;;;;7.80;5.13;;;9.50;99.90;;;;;;6192226;23;20146;-70
2023/04/24 02:33:47;;;;;;;5.10;3.73;;;9.50;99.90;;;;;;6218657;23;20397;-71
2023/04/24 02:36:13;;;;;;;6.93;4.93;;;9.40;99.90;;;;;;6218130;23;20368;-69
2023/04/24 02:38:39;;;;;;;5.07;4.57;;;9.40;99.90;;;;;;6218376;23;20126;-70
2023/04/24 02:41:06;;;;;;;4.97;4.27;;;9.40;99.90;;;;;;6218840;23;20362;-71
2023/04/24 02:43:32;;;;;;;8.37;4.80;;;9.30;99.90;;;;;;6218733;23;20142;-69
2023/04/24 02:45:58;;;;;;;4.83;3.50;;;9.30;99.90;;;;;;6192904;23;20455;-70
2023/04/24 02:48:24;;;;;;;6.07;4.67;;;9.30;99.90;;;;;;6192392;23;20377;-69
2023/04/24 02:50:50;;;;;;;7.57;4.80;;;9.30;99.90;;;;;;6222427;23;20427;-70
2023/04/24 02:53:17;;;;;;;7.40;5.00;;;9.40;99.90;;;;;;6196269;23;20436;-71
2023/04/24 02:55:42;;;;;;;4.97;4.40;;;9.50;99.90;;;;;;6193593;23;20381;-70
2023/04/24 02:58:08;;;;;;;7.77;5.30;;;9.60;99.90;;;;;;6191669;23;20150;-71
2023/04/24 03:00:34;;;;;;;6.73;4.50;;;9.70;99.90;;;;;;6191524;23;20173;-71
2023/04/24 03:02:59;;;;;;;6.47;5.87;;;9.80;99.90;;;;;;6218256;23;20134;-69
2023/04/24 03:05:27;;;;;;;9.60;6.57;;;9.80;99.90;;;;;;6217945;23;20138;-70
2023/04/24 03:07:52;;;;;;;9.43;4.93;;;9.90;99.90;;;;;;6192357;23;20138;-70
2023/04/24 03:10:22;;;;;;;7.00;5.10;;;9.90;99.90;;;;;;6217656;23;20825;-70
2023/04/24 03:12:47;;;;;;;7.00;5.60;;;10.00;99.90;;;;;;6218214;23;20690;-70
2023/04/24 03:15:13;;;;;;;9.10;4.90;;;10.00;99.90;;;;;;6218021;23;20360;-70
2023/04/24 03:17:39;;;;;;;10.03;5.33;;;10.00;99.90;;;;;;6191859;23;20146;-69
2023/04/24 03:20:05;;;;;;;8.47;6.37;;;10.00;99.90;;;;;;6218021;23;20162;-71
2023/04/24 03:22:32;;;;;;;6.73;6.03;;;10.00;99.90;;;;;;6192232;23;20237;-69
2023/04/24 03:24:59;;;;;;;7.90;5.20;;;10.00;99.90;;;;;;6191062;23;20373;-70
2023/04/24 03:27:26;;;;;;;7.13;4.73;;;10.00;99.90;;;;;;6192286;23;20373;-70
2023/04/24 03:30:00;;;;;;;8.57;6.43;;;10.00;99.90;;;;;;6193203;23;20404;-71
2023/04/24 03:32:34;;;;;;;5.97;5.37;;;10.00;99.90;;;;;;6196476;23;20381;-74
2023/04/24 03:35:00;;;;;;;9.47;5.57;;;10.00;99.90;;;;;;6174295;23;20365;-68
2023/04/24 03:37:26;;;;;;;7.93;5.47;;;10.00;99.90;;;;;;6174881;23;20690;-70
2023/04/24 03:40:03;;;;;;;7.07;5.70;;;9.90;99.90;;;;;;6201602;23;20401;-71
2023/04/24 03:42:29;;;;;;;5.30;4.60;;;9.90;99.90;;;;;;6199435;23;20365;-71
2023/04/24 03:44:55;;;;;;;10.63;6.07;;;9.80;99.90;;;;;;6198825;23;20622;-71
2023/04/24 03:47:25;;;;;;;8.83;6.60;;;9.70;99.90;;;;;;6198502;23;20142;-70
2023/04/24 03:49:55;;;;;;;6.93;5.80;;;9.60;99.90;;;;;;6196675;23;20408;-70
2023/04/24 03:52:21;;;;;;;6.13;5.43;;;9.50;99.90;;;;;;6222783;23;20735;-71
2023/04/24 03:54:47;;;;;;;5.20;3.73;;;9.50;99.90;;;;;;6191957;23;20397;-73
2023/04/24 03:57:12;;;;;;;7.37;5.77;;;9.50;99.90;;;;;;6191443;23;20388;-71
2023/04/24 03:59:46;;;;;;;8.33;4.90;;;9.50;99.90;;;;;;6207374;23;20173;-70
2023/04/24 04:02:16;;;;;;;11.33;5.63;;;9.60;99.90;;;;;;6200352;23;20385;-71
2023/04/24 04:04:42;;;;;;;11.87;6.20;;;9.70;99.90;;;;;;6175085;23;20379;-71
2023/04/24 04:07:08;;;;;;;9.70;6.60;;;9.70;99.90;;;;;;6185033;23;20163;-71
2023/04/24 04:09:35;;;;;;;6.53;5.70;;;9.70;99.90;;;;;;6212256;23;20193;-71
2023/04/24 04:12:01;;;;;;;8.30;5.00;;;9.80;99.90;;;;;;6185369;23;20424;-71
2023/04/24 04:14:28;;;;;;;6.53;5.10;;;9.70;99.90;;;;;;6183812;23;20423;-72
2023/04/24 04:16:54;;;;;;;8.70;6.37;;;9.70;99.90;;;;;;6171211;23;20366;-70
2023/04/24 04:19:20;;;;;;;8.40;4.83;;;9.80;99.90;;;;;;6195943;23;20448;-69
2023/04/24 04:21:50;;;;;;;5.80;4.60;;;9.80;99.90;;;;;;6192322;23;20142;-69
2023/04/24 04:24:24;;;;;;;6.30;5.43;;;9.80;99.90;;;;;;6191026;23;20374;-70
2023/04/24 04:26:52;;;;;;;8.37;5.70;;;9.80;99.90;;;;;;6168770;23;20372;-72
2023/04/24 04:29:25;;;;;;;7.13;5.50;;;9.80;99.90;;;;;;6203108;23;20496;-70
2023/04/24 04:31:52;;;;;;;7.07;5.47;;;9.80;99.90;;;;;;6208368;23;20373;-70
2023/04/24 04:34:18;;;;;;;7.83;4.50;;;9.80;99.90;;;;;;6203631;23;20408;-71
2023/04/24 04:36:44;;;;;;;11.77;6.13;;;9.80;99.90;;;;;;6200002;23;20366;-71
2023/04/24 04:39:28;;;;;;;7.83;4.73;;;9.80;99.90;;;;;;6203454;23;20447;-72
2023/04/24 04:42:00;;;;;;;6.80;5.40;;;9.80;99.90;;;;;;6204365;23;20827;-70
2023/04/24 04:44:31;;;;;;;6.70;6.00;;;9.80;99.90;;;;;;6180412;23;20442;-73
2023/04/24 04:46:59;;;;;;;7.27;5.43;;;9.80;99.90;;;;;;6176117;23;20424;-71
2023/04/24 04:49:31;;;;;;;8.10;5.47;;;9.80;99.90;;;;;;6177209;23;20407;-70
2023/04/24 04:51:57;;;;;;;6.87;4.10;;;9.90;99.90;;;;;;6179977;23;20376;-72
2023/04/24 04:54:25;;;;;;;5.57;4.50;;;9.90;99.90;;;;;;6204463;23;20856;-72
2023/04/24 04:56:50;;;;;;;5.20;4.50;;;9.90;99.90;;;;;;6203228;23;20377;-72
2023/04/24 04:59:16;;;;;;;4.80;3.87;;;9.90;99.90;;;;;;6201220;23;20867;-71
2023/04/24 05:01:42;;;;;;;6.37;4.80;;;9.90;99.90;;;;;;6201207;23;20377;-71
2023/04/24 05:04:10;;;;;;;12.47;6.37;;;10.00;99.90;;;;;;6200485;23;20373;-72
2023/04/24 05:06:37;;;;;;;6.53;5.27;;;10.00;99.90;;;;;;6199243;23;20790;-72
2023/04/24 05:09:04;;;;;;;6.77;4.10;;;9.90;99.90;;;;;;6198932;23;20880;-73
2023/04/24 05:11:39;;;;;;;5.40;4.50;;;10.00;99.90;;;;;;6190523;23;20414;-71
2023/04/24 05:14:05;;;;;;;4.50;3.90;;;10.00;99.90;;;;;;6145418;23;20508;-74
2023/04/24 05:16:37;;;;;;;8.03;4.90;;;10.00;99.90;;;;;;6170439;23;20147;-72
2023/04/24 05:19:03;;;;;;;7.17;4.80;;;10.00;99.90;;;;;;6144743;23;20394;-74
2023/04/24 05:21:34;;;;;;;6.70;4.60;;;10.00;99.90;;;;;;6151196;23;20366;-73
2023/04/24 05:24:00;;;;;;;7.90;6.40;;;10.00;99.90;;;;;;6175140;23;20469;-75
2023/04/24 05:26:42;;;;;;;6.80;5.50;;;10.00;99.90;;;;;;6151927;23;20517;-75
2023/04/24 05:29:09;;;;;;;9.30;4.43;;;10.10;99.90;;;;;;6172757;23;20449;-72
2023/04/24 05:31:35;;;;;;;6.90;4.50;;;10.10;99.90;;;;;;6197006;23;20374;-72
2023/04/24 05:34:00;;;;;;;5.30;4.20;;;10.10;99.90;;;;;;6172288;23;20193;-73
2023/04/24 05:36:27;;;;;;;7.70;5.03;;;10.10;99.90;;;;;;6172446;23;20207;-72
2023/04/24 05:38:55;;;;;;;5.63;4.10;;;10.10;99.90;;;;;;6147121;23;20398;-74
2023/04/24 05:41:22;;;;;;;4.57;4.00;;;10.10;99.90;;;;;;6170502;23;20161;-72
2023/04/24 05:43:48;;;;;;;5.60;4.80;;;10.10;99.90;;;;;;6174905;23;20381;-75
2023/04/24 05:46:13;;;;;;;6.90;4.50;;;10.10;99.90;;;;;;6174728;23;20371;-74
2023/04/24 05:48:39;;;;;;;6.30;4.83;;;10.10;99.90;;;;;;6174325;23;20382;-75
2023/04/24 05:51:05;;;;;;;4.33;3.53;;;10.20;99.90;;;;;;6151618;23;20158;-73
2023/04/24 05:53:31;;;;;;;10.20;5.80;;;10.20;99.90;;;;;;6152002;23;20174;-74
2023/04/24 05:55:57;;;;;;;22.47;9.27;;;10.20;99.90;;;;;;6149469;23;20513;-72
2023/04/24 05:58:23;;;;;;;11.33;6.17;;;10.30;99.90;;;;;;6173082;23;20362;-74
2023/04/24 06:00:49;;;;;;;9.50;6.70;;;10.30;99.90;;;;;;6148795;23;20432;-76
2023/04/24 06:03:16;;;;;;;10.60;7.33;;;10.30;99.90;;;;;;6149852;23;20392;-74
2023/04/24 06:05:42;;;;;;;7.70;5.67;;;10.20;99.90;;;;;;6148469;23;20401;-72
2023/04/24 06:08:08;;;;;;;7.07;5.70;;;10.30;99.90;;;;;;6172524;23;20153;-73
2023/04/24 06:10:37;;;;;;;5.67;5.03;;;10.30;99.90;;;;;;6172747;23;20181;-73
2023/04/24 06:13:04;;;;;;;7.97;5.63;;;10.30;99.90;;;;;;6198901;23;20431;-73
2023/04/24 06:15:33;;;;;;;5.70;4.37;;;10.30;99.90;;;;;;6204928;23;20376;-73
2023/04/24 06:18:04;;;;;;;7.17;4.83;;;10.30;99.90;;;;;;6179781;23;20373;-73
2023/04/24 06:20:30;;;;;;;7.30;5.13;;;10.30;99.90;;;;;;6229780;23;20483;-74
2023/04/24 06:22:56;;;;;;;8.33;5.30;;;10.20;99.90;;;;;;6226276;23;20524;-72
2023/04/24 06:25:21;;;;;;;9.23;5.20;;;10.20;99.90;;;;;;6200296;23;20142;-72
2023/04/24 06:27:47;;;;;;;5.67;3.80;;;10.20;99.90;;;;;;6228896;23;20130;-75
2023/04/24 06:30:13;;;;;;;6.87;4.37;;;10.10;99.90;;;;;;6200277;23;20197;-73
2023/04/24 06:32:39;;;;;;;5.90;4.03;;;9.90;99.90;;;;;;6226500;23;20139;-74
2023/04/24 06:35:07;;;;;;;4.50;4.03;;;9.90;99.90;;;;;;6228817;23;20144;-73
2023/04/24 06:37:33;;;;;;;4.57;4.17;;;9.80;99.90;;;;;;6175129;23;20412;-73
2023/04/24 06:39:59;;;;;;;5.50;2.93;;;9.70;99.90;;;;;;6227027;23;20381;-74
2023/04/24 06:42:24;;;;;;;3.50;3.00;;;9.70;99.90;;;;;;6226644;23;20134;-73
2023/04/24 06:44:50;;;;;;;6.00;2.63;;;9.50;99.90;;;;;;6201837;23;20145;-74
2023/04/24 06:47:16;;;;;;;2.63;2.23;;;9.40;99.90;;;;;;6152059;23;20546;-73
2023/04/24 06:49:42;;;;;;;4.40;2.80;;;9.20;99.90;;;;;;6202287;23;20573;-73
2023/04/24 06:52:08;;;;;;;2.93;2.30;;;9.10;99.90;;;;;;6204533;23;20626;-75
2023/04/24 06:54:34;;;;;;;2.83;2.30;;;9.00;99.90;;;;;;6177514;23;20413;-75
2023/04/24 06:57:03;;;;;;;2.03;1.80;;;8.90;99.90;;;;;;6202045;23;20353;-75
2023/04/24 06:59:29;;;;;;;2.20;1.80;;;8.80;99.90;;;;;;6229274;23;20389;-73
2023/04/24 07:01:55;;;;;;;3.80;2.30;;;8.80;99.90;;;;;;6205939;23;20389;-75
2023/04/24 07:04:21;;;;;;;2.40;1.83;;;8.80;99.90;;;;;;6205507;23;20385;-72
2023/04/24 07:06:47;;;;;;;2.20;2.00;;;8.70;99.90;;;;;;6200854;23;20428;-73
2023/04/24 07:09:13;;;;;;;4.33;2.60;;;8.70;99.90;;;;;;6204648;23;20176;-74
2023/04/24 07:11:40;;;;;;;2.90;2.43;;;8.70;99.90;;;;;;6180664;23;20413;-75
2023/04/24 07:14:06;;;;;;;2.83;2.10;;;8.70;99.90;;;;;;6206296;23;20427;-74
2023/04/24 07:16:32;;;;;;;2.50;2.10;;;8.60;99.90;;;;;;6203647;23;20400;-76
2023/04/24 07:18:58;;;;;;;7.10;2.87;;;8.70;99.90;;;;;;6176856;23;20488;-73
2023/04/24 07:21:23;;;;;;;3.10;2.73;;;8.60;99.90;;;;;;6176750;23;20157;-72
2023/04/24 07:23:49;;;;;;;5.67;2.90;;;8.50;99.90;;;;;;6227996;23;20210;-74
2023/04/24 07:26:14;;;;;;;3.20;2.90;;;8.40;99.90;;;;;;6203568;23;20408;-72
2023/04/24 07:28:40;;;;;;;2.83;2.53;;;8.40;99.90;;;;;;6179542;23;20273;-72
2023/04/24 07:31:08;;;;;;;4.10;2.37;;;8.30;99.90;;;;;;6208570;23;20184;-72
2023/04/24 07:33:35;;;;;;;6.50;3.37;;;8.30;99.90;;;;;;6180060;23;20416;-74
2023/04/24 07:36:01;;;;;;;2.50;2.00;;;8.30;99.90;;;;;;6177689;23;20369;-74
2023/04/24 07:38:29;;;;;;;2.83;2.40;;;8.30;99.90;;;;;;6205698;23;20419;-72
2023/04/24 07:40:55;;;;;;;3.03;2.10;;;8.30;99.90;;;;;;6202602;23;20355;-72
2023/04/24 07:43:21;;;;;;;4.07;2.77;;;8.30;99.90;;;;;;6204274;23;20381;-73
2023/04/24 07:45:47;;;;;;;4.73;2.80;;;8.20;99.90;;;;;;6234933;23;20149;-75
2023/04/24 07:48:16;;;;;;;2.63;2.43;;;8.00;99.90;;;;;;6231179;23;20400;-75
2023/04/24 07:50:42;;;;;;;2.60;1.50;;;7.90;99.90;;;;;;6233827;23;20224;-73
2023/04/24 07:53:07;;;;;;;2.80;2.20;;;7.80;99.90;;;;;;6211133;23;20687;-74
2023/04/24 07:55:33;;;;;;;3.30;1.70;;;7.70;99.90;;;;;;6185705;23;20377;-73
2023/04/24 07:57:59;;;;;;;2.77;1.97;;;7.70;99.90;;;;;;6231609;23;20134;-73
2023/04/24 08:00:25;;;;;;;2.87;1.87;;;7.60;99.90;;;;;;6205071;23;20161;-75
2023/04/24 08:02:50;;;;;;;3.00;2.20;;;7.50;99.90;;;;;;6203730;23;20150;-73
2023/04/24 08:05:16;;;;;;;2.83;1.60;;;7.50;99.90;;;;;;6201499;23;20380;-74
2023/04/24 08:07:45;;;;;;;2.60;1.93;;;7.50;99.90;;;;;;6177915;23;20154;-72
2023/04/24 08:10:11;;;;;;;3.40;1.83;;;7.40;99.90;;;;;;6228036;23;20197;-74
2023/04/24 08:12:38;;;;;;;4.23;1.50;;;7.40;99.90;;;;;;6176524;23;20428;-71
2023/04/24 08:15:05;;;;;;;2.10;1.83;;;7.40;99.90;;;;;;6229460;23;20205;-72
2023/04/24 08:17:30;;;;;;;3.40;1.73;;;7.40;99.90;;;;;;6200595;23;20429;-72
2023/04/24 08:20:01;;;;;;;3.27;2.00;;;7.30;99.90;;;;;;6227459;23;20436;-73
2023/04/24 08:22:27;;;;;;;3.93;2.20;;;7.20;99.90;;;;;;6177388;23;20158;-69
2023/04/24 08:24:53;;;;;;;3.03;1.30;;;7.10;99.90;;;;;;6176593;23;20369;-73
2023/04/24 08:27:19;;;;;;;2.23;2.03;;;7.00;99.90;;;;;;6200079;23;20354;-74
2023/04/24 08:29:44;;;;;;;2.33;1.87;;;7.00;99.90;;;;;;6225856;23;20407;-71
2023/04/24 08:32:10;;;;;;;2.60;1.83;;;7.00;99.90;;;;;;6227767;23;20138;-71
2023/04/24 08:34:36;;;;;;;2.03;1.40;;;6.90;99.90;;;;;;6227278;23;20158;-75
2023/04/24 08:37:02;;;;;;;3.20;1.80;;;6.90;99.90;;;;;;6202526;23;20154;-73
2023/04/24 08:39:28;;;;;;;4.27;2.00;;;6.80;99.90;;;;;;6176764;23;20170;-73
2023/04/24 08:41:55;;;;;;;2.17;1.50;;;6.80;99.90;;;;;;6176176;23;20388;-74
2023/04/24 08:44:21;;;;;;;2.70;2.03;;;6.80;99.90;;;;;;6179963;23;20150;-75
2023/04/24 08:46:51;;;;;;;3.10;1.97;;;6.70;99.90;;;;;;6202036;23;20671;-74
2023/04/24 08:49:18;;;;;;;2.27;1.77;;;6.80;99.90;;;;;;6176717;23;20397;-73
2023/04/24 08:51:45;;;;;;;4.43;2.77;;;6.80;99.90;;;;;;6229566;23;20365;-74
2023/04/24 08:54:12;;;;;;;2.93;2.10;;;6.90;99.90;;;;;;6200399;23;20453;-74
2023/04/24 08:56:40;;;;;;;3.90;3.17;;;6.90;99.90;;;;;;6202523;23;20362;-72
2023/04/24 08:59:06;;;;;;;4.97;2.97;;;6.90;99.90;;;;;;6202467;23;20392;-74
2023/04/24 09:01:35;;;;;;;6.40;4.30;;;6.90;99.90;;;;;;6178563;23;20393;-75
2023/04/24 09:04:03;;;;;;;5.63;3.60;;;6.90;99.90;;;;;;6201916;23;20361;-71
2023/04/24 09:06:31;;;;;;;7.57;4.43;;;6.80;99.90;;;;;;6202115;23;20365;-73
2023/04/24 09:09:03;;;;;;;4.93;3.77;;;6.90;99.90;;;;;;6205227;23;20397;-73
2023/04/24 09:11:33;;;;;;;9.60;5.63;;;6.90;99.90;;;;;;6202145;23;20423;-72
2023/04/24 09:14:00;;;;;;;8.90;5.60;;;6.80;99.90;;;;;;6180348;23;20470;-75
2023/04/24 09:16:26;;;;;;;8.13;5.00;;;6.80;99.90;;;;;;6204627;23;20403;-71
2023/04/24 09:18:52;;;;;;;9.57;5.87;;;6.90;99.90;;;;;;6206981;23;20392;-71
2023/04/24 09:21:21;;;;;;;10.30;6.50;;;6.90;99.90;;;;;;6233651;23;20357;-73
2023/04/24 09:23:46;;;;;;;12.50;8.27;;;7.00;99.90;;;;;;6206639;23;20427;-73
2023/04/24 09:26:14;;;;;;;12.37;7.53;;;7.10;99.90;;;;;;6234949;23;20716;-73
2023/04/24 09:28:40;;;;;;;11.43;6.90;;;7.20;99.90;;;;;;6236094;23;20138;-72
2023/04/24 09:31:08;;;;;;;11.50;7.60;;;7.20;99.90;;;;;;6186000;23;20388;-74
2023/04/24 09:33:34;;;;;;;9.60;7.50;;;7.30;99.90;;;;;;6213092;23;20405;-73
2023/04/24 09:36:00;;;;;;;11.87;8.57;;;7.30;99.90;;;;;;6239154;23;20368;-74
2023/04/24 09:38:37;;;;;;;9.33;6.60;;;7.30;99.90;;;;;;6188511;23;20440;-74
2023/04/24 09:41:06;;;;;;;13.70;9.13;;;7.40;99.90;;;;;;6186524;23;20392;-73
2023/04/24 09:43:32;;;;;;;21.90;11.20;;;7.40;99.90;;;;;;6206357;23;20408;-74
2023/04/24 09:46:00;;;;;;;12.30;9.80;;;7.60;99.90;;;;;;6202514;23;20353;-73
2023/04/24 09:48:31;;;;;;;13.97;8.43;;;7.60;99.90;;;;;;6178313;23;20405;-72
2023/04/24 09:50:57;;;;;;;15.73;10.60;;;7.70;99.90;;;;;;6228596;23;20365;-72
2023/04/24 09:53:26;;;;;;;14.00;9.83;;;7.80;99.90;;;;;;6203309;23;20701;-75
2023/04/24 09:55:52;;;;;;;12.27;7.97;;;7.90;99.90;;;;;;6206386;23;20135;-74
2023/04/24 09:58:24;;;;;;;17.73;10.23;;;8.10;99.90;;;;;;6206593;23;20777;-72
2023/04/24 10:00:53;;;;;;;12.23;9.07;;;8.20;99.90;;;;;;6232989;23;20395;-74
2023/04/24 10:03:19;;;;;;;16.80;9.10;;;8.20;99.90;;;;;;6180649;23;20384;-73
2023/04/24 10:05:46;;;;;;;12.47;7.67;;;8.40;99.90;;;;;;6181236;23;20456;-72
2023/04/24 10:08:13;;;;;;;15.77;9.57;;;8.50;99.90;;;;;;6204122;23;20463;-74
2023/04/24 10:10:44;;;;;;;17.30;11.10;;;8.60;99.90;;;;;;6202805;23;20455;-71
2023/04/24 10:13:12;;;;;;;14.03;8.80;;;8.60;99.90;;;;;;6205465;23;20443;-73
2023/04/24 10:15:38;;;;;;;13.73;8.93;;;8.50;99.90;;;;;;6230317;23;20361;-73
2023/04/24 10:18:06;;;;;;;9.70;7.20;;;8.50;99.90;;;;;;6205105;23;20546;-74
2023/04/24 10:20:36;;;;;;;9.83;7.00;;;8.60;99.90;;;;;;6202951;23;20457;-73
2023/04/24 10:23:03;;;;;;;12.97;8.70;;;8.70;99.90;;;;;;6233105;23;20404;-74
2023/04/24 10:25:34;;;;;;;9.87;8.83;;;8.90;99.90;;;;;;6180339;23;20373;-74
2023/04/24 10:28:01;;;;;;;12.03;7.10;;;8.80;99.90;;;;;;6228525;23;20801;-74
2023/04/24 10:30:29;;;;;;;11.27;7.40;;;8.80;99.90;;;;;;6179411;23;20694;-76
2023/04/24 10:32:54;;;;;;;11.40;7.17;;;8.60;99.90;;;;;;6203098;23;20491;-74
2023/04/24 10:35:22;;;;;;;15.30;8.23;;;8.60;99.90;;;;;;6205403;23;20388;-73
2023/04/24 10:37:57;;;;;;;11.40;6.90;;;8.70;99.90;;;;;;6232190;23;20200;-74
2023/04/24 10:40:31;;;;;;;8.80;5.67;;;8.90;99.90;;;;;;6179854;23;20397;-74
2023/04/24 10:42:57;;;;;;;12.97;7.17;;;9.20;99.90;;;;;;6206345;23;20376;-75
2023/04/24 10:45:24;;;;;;;8.50;6.50;;;9.20;99.90;;;;;;6183574;23;20365;-75
2023/04/24 10:48:13;;;;;;;6.70;5.50;;;9.20;99.90;;;;;;6181982;23;20383;-75
2023/04/24 10:50:53;;;;;;;15.13;6.93;;;9.10;99.90;;;;;;6184216;23;20397;-76
2023/04/24 10:53:24;;;;;;;11.97;6.70;;;8.90;99.90;;;;;;6183582;23;20443;-76
2023/04/24 10:56:09;;;;;;;13.20;8.00;;;8.90;99.90;;;;;;6233539;23;20368;-76
2023/04/24 10:58:46;;;;;;;14.67;6.70;;;9.00;99.90;;;;;;6204640;23;20436;-74
2023/04/24 11:01:27;;;;;;;14.30;7.77;;;9.20;99.90;;;;;;6181161;23;20365;-76
2023/04/24 11:03:58;;;;;;;10.93;7.60;;;9.20;99.90;;;;;;6206898;23;20377;-74
2023/04/24 11:06:37;;;;;;;9.37;6.53;;;9.30;99.90;;;;;;6205062;23;20375;-76
2023/04/24 11:09:12;;;;;;;13.10;7.27;;;9.40;99.90;;;;;;6234780;23;20396;-75
2023/04/24 11:11:40;;;;;;;10.97;6.97;;;9.20;99.90;;;;;;6208171;23;20659;-71
2023/04/24 11:14:09;;;;;;;10.87;6.97;;;9.10;99.90;;;;;;6206281;23;20421;-73
2023/04/24 11:16:51;;;;;;;17.33;9.10;;;9.00;99.90;;;;;;6208089;23;20605;-73
2023/04/24 11:19:24;;;;;;;9.33;7.30;;;9.00;99.90;;;;;;6205538;23;20424;-77
2023/04/24 11:22:00;;;;;;;11.70;7.73;;;9.00;99.90;;;;;;6210267;23;20381;-75
2023/04/24 11:24:30;;;;;;;17.87;9.20;;;9.00;99.90;;;;;;6208241;23;20369;-75
2023/04/24 11:27:19;;;;;;;13.77;8.40;;;8.90;99.90;;;;;;6206778;23;20415;-75
2023/04/24 11:29:59;;;;;;;17.30;10.13;;;9.10;99.90;;;;;;6207230;23;20415;-74
2023/04/24 11:32:32;;;;;;;17.00;8.73;;;9.30;99.90;;;;;;6180518;23;20388;-75
2023/04/24 11:35:29;;;;;;;20.57;9.43;;;9.30;99.90;;;;;;6232488;23;20361;-77
2023/04/24 11:37:55;;;;;;;11.00;7.10;;;9.20;99.90;;;;;;6158480;23;20361;-76
2023/04/24 11:40:22;;;;;;;11.30;8.33;;;9.20;99.90;;;;;;6209076;23;20408;-74
2023/04/24 11:42:50;;;;;;;14.47;9.60;;;9.30;99.90;;;;;;6207871;23;20577;-74
2023/04/24 11:45:20;;;;;;;13.00;9.00;;;9.40;99.90;;;;;;6205781;23;20384;-76
2023/04/24 11:47:46;;;;;;;13.50;8.90;;;9.50;99.90;;;;;;6208114;23;20379;-77
2023/04/24 11:50:17;;;;;;;16.80;10.47;;;9.70;99.90;;;;;;6206513;23;20643;-75
2023/04/24 11:52:45;;;;;;;15.00;9.10;;;10.00;99.90;;;;;;6207398;23;20150;-75
2023/04/24 11:55:13;;;;;;;13.77;8.47;;;10.20;99.90;;;;;;6181030;23;20365;-76
2023/04/24 11:57:43;;;;;;;14.93;8.60;;;10.10;99.90;;;;;;6207276;23;20682;-75
2023/04/24 12:00:16;;;;;;;12.17;7.30;;;10.10;99.90;;;;;;6207286;23;20392;-72
2023/04/24 12:02:42;;;;;;;12.90;8.40;;;9.90;99.90;;;;;;6209553;23;20373;-75
2023/04/24 12:05:08;;;;;;;13.83;8.77;;;9.80;99.90;;;;;;6206613;23;20377;-74
2023/04/24 12:07:44;;;;;;;12.70;8.77;;;9.70;99.90;;;;;;6206129;23;20377;-74
2023/04/24 12:10:10;;;;;;;10.83;8.27;;;9.70;99.90;;;;;;6230481;23;20863;-74
2023/04/24 12:12:36;;;;;;;14.57;8.80;;;10.00;99.90;;;;;;6202476;23;20480;-74
2023/04/24 12:15:07;;;;;;;12.73;7.33;;;10.00;99.90;;;;;;6205612;23;20400;-76
2023/04/24 12:17:34;;;;;;;9.20;6.67;;;10.00;99.90;;;;;;6206442;23;20169;-76
2023/04/24 12:20:06;;;;;;;12.10;8.37;;;10.00;99.90;;;;;;6180845;23;20393;-76
2023/04/24 12:22:53;;;;;;;11.47;7.47;;;10.20;99.90;;;;;;6208614;23;20392;-77
2023/04/24 12:25:20;;;;;;;10.00;7.17;;;10.20;99.90;;;;;;6182787;23;20374;-75
2023/04/24 12:27:46;;;;;;;14.63;7.47;;;10.30;99.90;;;;;;6209327;23;20421;-75
2023/04/24 12:30:16;;;;;;;16.43;7.30;;;10.10;99.90;;;;;;6233955;23;20393;-75
2023/04/24 12:32:47;;;;;;;10.07;7.10;;;10.00;99.90;;;;;;6183940;23;20421;-75
2023/04/24 12:35:20;;;;;;;15.80;8.10;;;9.80;99.90;;;;;;6183421;23;20369;-74
2023/04/24 12:37:46;;;;;;;14.80;7.67;;;9.90;99.90;;;;;;6209687;23;20365;-75
2023/04/24 12:40:13;;;;;;;15.47;8.60;;;9.90;99.90;;;;;;6188730;23;20433;-76
2023/04/24 12:42:44;;;;;;;18.50;7.50;;;10.30;99.90;;;;;;6184595;23;20365;-77
2023/04/24 12:45:12;;;;;;;10.47;7.30;;;10.40;99.90;;;;;;6235347;23;20401;-76
2023/04/24 12:47:38;;;;;;;11.10;6.60;;;10.50;99.90;;;;;;6184118;23;20412;-76
2023/04/24 12:50:05;;;;;;;7.53;4.83;;;11.00;99.90;;;;;;6211351;23;20384;-74
2023/04/24 12:52:31;;;;;;;18.60;6.90;;;11.40;99.90;;;;;;6210271;23;20386;-76